Time;durP1;ratioP1;P1;durP2;ratioP2;P2;SDS_P1;SDS_P2;PMS_P1;PMS_P2;Temp;Humidity;BMP_temperature;BMP_pressure;BME280_temperature;BME280_humidity;BME280_pressure;Samples;Min_cycle;Max_cycle;Signal;HPM_P1;HPM_P2
2023/03/16 00:01:18;;;;;;;5.93;1.60;;;4.30;87.00;;;;;;5087144;28;20541;-90
2023/03/16 00:03:44;;;;;;;5.90;2.03;;;4.20;88.60;;;;;;5070560;28;20489;-89
2023/03/16 00:06:10;;;;;;;5.27;1.67;;;4.20;87.60;;;;;;5070136;28;20837;-91
2023/03/16 00:08:37;;;;;;;4.53;1.77;;;4.20;87.50;;;;;;5087069;28;20503;-90
2023/03/16 00:11:02;;;;;;;4.03;1.40;;;4.20;87.50;;;;;;5069836;28;20405;-90
2023/03/16 00:13:29;;;;;;;4.80;1.80;;;4.30;86.90;;;;;;5070526;28;20394;-89
2023/03/16 00:15:57;;;;;;;5.13;1.67;;;4.30;86.00;;;;;;5070214;28;20459;-90
2023/03/16 00:18:26;;;;;;;5.07;1.88;;;4.30;86.90;;;;;;5069511;28;20393;-91
2023/03/16 00:20:54;;;;;;;5.05;1.40;;;4.50;87.30;;;;;;5070451;28;20410;-89
2023/03/16 00:23:25;;;;;;;5.07;1.50;;;4.30;86.40;;;;;;5069998;28;20408;-89
2023/03/16 00:25:55;;;;;;;5.13;1.67;;;4.30;85.80;;;;;;5070265;28;20448;-89
2023/03/16 00:28:22;;;;;;;3.97;1.45;;;4.30;85.20;;;;;;5069559;28;20405;-89
2023/03/16 00:30:48;;;;;;;6.40;1.73;;;4.30;84.60;;;;;;5069908;28;20397;-89
2023/03/16 00:33:14;;;;;;;5.18;1.80;;;4.40;85.60;;;;;;5069769;28;20930;-89
2023/03/16 00:35:49;;;;;;;4.15;1.50;;;4.70;86.10;;;;;;5069515;28;20404;-90
2023/03/16 00:38:16;;;;;;;4.10;1.67;;;4.50;85.60;;;;;;5086885;28;20398;-90
2023/03/16 00:40:42;;;;;;;5.47;1.55;;;4.60;85.90;;;;;;5069444;28;20398;-89
2023/03/16 00:43:08;;;;;;;5.88;2.20;;;4.60;85.60;;;;;;5070124;28;21133;-90
2023/03/16 00:45:33;;;;;;;3.75;1.50;;;4.60;85.00;;;;;;5086226;28;20398;-88
2023/03/16 00:48:00;;;;;;;4.80;1.42;;;4.40;84.60;;;;;;5069870;28;20432;-89
2023/03/16 00:50:26;;;;;;;5.53;1.70;;;4.40;84.40;;;;;;5069533;28;20398;-90
2023/03/16 00:52:53;;;;;;;5.47;1.60;;;4.40;84.80;;;;;;5086038;28;20429;-89
2023/03/16 00:55:21;;;;;;;5.43;2.27;;;4.40;85.10;;;;;;5086554;28;20455;-89
2023/03/16 00:57:47;;;;;;;6.82;1.73;;;4.40;84.90;;;;;;5068997;28;20475;-90
2023/03/16 01:00:15;;;;;;;5.00;1.60;;;4.40;84.90;;;;;;5069041;28;20584;-90
2023/03/16 01:02:44;;;;;;;5.90;1.52;;;4.40;84.90;;;;;;5069121;28;20487;-89
2023/03/16 01:05:11;;;;;;;4.75;1.58;;;4.50;84.30;;;;;;5069184;28;20394;-88
2023/03/16 01:07:38;;;;;;;6.72;1.80;;;4.40;85.20;;;;;;5069067;28;20816;-89
2023/03/16 01:10:04;;;;;;;4.68;1.58;;;4.40;86.60;;;;;;5068545;28;20490;-89
2023/03/16 01:12:30;;;;;;;6.13;1.70;;;4.40;86.20;;;;;;5085892;28;20855;-89
2023/03/16 01:14:56;;;;;;;5.10;1.80;;;4.30;86.50;;;;;;5068372;28;20500;-89
2023/03/16 01:17:21;;;;;;;4.43;1.52;;;4.30;87.10;;;;;;5068890;28;20501;-90
2023/03/16 01:19:47;;;;;;;4.73;1.80;;;4.30;87.10;;;;;;5068841;28;20401;-89
2023/03/16 01:22:13;;;;;;;4.93;1.63;;;4.30;87.60;;;;;;5068550;28;20451;-88
2023/03/16 01:24:41;;;;;;;4.53;1.75;;;4.20;88.20;;;;;;5068580;28;20394;-88
2023/03/16 01:27:07;;;;;;;5.30;2.00;;;4.20;88.20;;;;;;5068826;28;20459;-89
2023/03/16 01:29:33;;;;;;;4.07;2.20;;;4.20;88.50;;;;;;5069010;28;20424;-88
2023/03/16 01:32:00;;;;;;;6.32;2.10;;;4.20;88.90;;;;;;5068150;28;20471;-89
2023/03/16 01:34:26;;;;;;;4.65;1.80;;;4.20;89.40;;;;;;5069220;28;20747;-89
2023/03/16 01:36:52;;;;;;;4.37;1.80;;;4.20;89.50;;;;;;5068313;28;20956;-90
2023/03/16 01:39:17;;;;;;;5.93;2.20;;;4.10;90.00;;;;;;5068793;28;20406;-89
2023/03/16 01:41:44;;;;;;;4.87;2.00;;;4.20;90.40;;;;;;5068574;28;20538;-88
2023/03/16 01:44:56;;;;;;;4.70;1.80;;;4.00;90.70;;;;;;5068496;28;20398;-89
2023/03/16 01:47:22;;;;;;;6.05;2.10;;;4.10;90.80;;;;;;5065537;28;20420;-89
2023/03/16 01:49:53;;;;;;;4.68;1.77;;;3.90;91.00;;;;;;5084962;28;20413;-89
2023/03/16 01:52:25;;;;;;;7.22;2.38;;;3.90;91.10;;;;;;5068213;28;20465;-89
2023/03/16 01:54:55;;;;;;;5.63;2.27;;;3.90;91.10;;;;;;5068384;28;20478;-89
2023/03/16 01:57:34;;;;;;;4.85;1.80;;;3.90;91.60;;;;;;5084831;28;20402;-89
2023/03/16 02:00:18;;;;;;;4.47;2.10;;;3.90;91.70;;;;;;5085639;28;20799;-90
2023/03/16 02:02:47;;;;;;;4.97;2.00;;;3.90;91.90;;;;;;5084441;28;20402;-90
2023/03/16 02:05:23;;;;;;;4.55;2.50;;;4.00;92.20;;;;;;5068008;28;20398;-89
2023/03/16 02:07:57;;;;;;;4.78;2.00;;;4.00;92.40;;;;;;5067683;28;20428;-88
2023/03/16 02:10:24;;;;;;;5.50;2.30;;;3.90;92.30;;;;;;5068322;28;20407;-88
2023/03/16 02:12:51;;;;;;;5.65;2.47;;;4.00;92.40;;;;;;5068013;28;20468;-88
2023/03/16 02:15:17;;;;;;;3.25;2.20;;;4.00;92.60;;;;;;5068011;28;20398;-90
2023/03/16 02:17:45;;;;;;;5.87;2.50;;;4.00;92.30;;;;;;5068653;28;20769;-91
2023/03/16 02:20:15;;;;;;;4.32;2.28;;;4.10;92.30;;;;;;5068315;28;20768;-89
2023/03/16 02:22:47;;;;;;;6.20;2.42;;;4.10;92.00;;;;;;5068214;28;20840;-88
2023/03/16 02:25:16;;;;;;;7.07;2.80;;;4.20;92.20;;;;;;5067576;28;21015;-89
2023/03/16 02:27:55;;;;;;;7.32;2.60;;;4.20;92.30;;;;;;5088936;28;20422;-91
2023/03/16 02:30:21;;;;;;;4.50;2.38;;;4.20;91.80;;;;;;5072856;28;20493;-90
2023/03/16 02:32:50;;;;;;;4.40;2.30;;;4.20;92.10;;;;;;5088368;28;20429;-89
2023/03/16 02:35:16;;;;;;;5.60;2.55;;;4.30;91.90;;;;;;5088951;28;20413;-89
2023/03/16 02:37:42;;;;;;;4.03;2.58;;;4.30;91.40;;;;;;5071857;28;20789;-91
2023/03/16 02:40:17;;;;;;;6.63;2.87;;;4.30;91.60;;;;;;5071843;28;20445;-90
2023/03/16 02:42:43;;;;;;;5.25;2.72;;;4.40;91.60;;;;;;5071684;28;20409;-90
2023/03/16 02:45:09;;;;;;;6.53;2.85;;;4.40;91.30;;;;;;5088995;28;20405;-90
2023/03/16 02:47:41;;;;;;;6.18;3.00;;;4.40;91.50;;;;;;5072093;28;20398;-89
2023/03/16 02:50:08;;;;;;;5.20;2.63;;;4.40;91.70;;;;;;5088213;28;20406;-90
2023/03/16 02:52:36;;;;;;;6.07;2.85;;;4.50;91.60;;;;;;5088698;28;20551;-90
2023/03/16 02:55:03;;;;;;;6.68;2.70;;;4.50;91.60;;;;;;5071447;28;20497;-89
2023/03/16 02:57:30;;;;;;;4.72;2.53;;;4.50;91.80;;;;;;5071415;28;20398;-91
2023/03/16 02:59:56;;;;;;;5.05;2.50;;;4.50;91.80;;;;;;5071262;28;20401;-89
2023/03/16 03:02:22;;;;;;;4.03;2.80;;;4.50;91.90;;;;;;5071560;28;20872;-89
2023/03/16 03:04:47;;;;;;;5.75;3.00;;;4.80;92.20;;;;;;5071867;28;20410;-90
2023/03/16 03:07:14;;;;;;;5.80;3.00;;;4.50;92.60;;;;;;5070503;28;20497;-89
2023/03/16 03:09:41;;;;;;;5.53;3.17;;;4.60;92.30;;;;;;5071195;28;20861;-90
2023/03/16 03:12:09;;;;;;;5.43;3.03;;;4.50;92.30;;;;;;5087272;28;20560;-90
2023/03/16 03:14:38;;;;;;;6.25;3.10;;;4.60;92.40;;;;;;5071000;28;20785;-89
2023/03/16 03:17:09;;;;;;;6.05;3.17;;;4.60;92.40;;;;;;5070857;28;20406;-91
2023/03/16 03:19:35;;;;;;;5.25;3.22;;;4.70;92.70;;;;;;5071230;28;20398;-90
2023/03/16 03:22:05;;;;;;;5.38;3.20;;;4.60;92.50;;;;;;5071443;28;20417;-91
2023/03/16 03:24:34;;;;;;;5.18;3.25;;;4.60;92.50;;;;;;5071038;28;20442;-90
2023/03/16 03:27:04;;;;;;;5.72;3.13;;;4.60;92.70;;;;;;5071310;28;20409;-89
2023/03/16 03:29:33;;;;;;;4.70;3.30;;;4.60;93.00;;;;;;5071025;28;20769;-89
2023/03/16 03:32:05;;;;;;;6.72;3.63;;;4.60;92.90;;;;;;5070868;28;20437;-89
2023/03/16 03:34:32;;;;;;;6.90;3.60;;;4.60;93.00;;;;;;5070996;28;20910;-91
2023/03/16 03:36:59;;;;;;;5.18;3.50;;;4.60;93.50;;;;;;5070798;28;20440;-89
2023/03/16 03:39:25;;;;;;;6.57;4.00;;;4.70;93.00;;;;;;5070991;28;20536;-89
2023/03/16 03:41:53;;;;;;;8.00;3.93;;;4.60;93.20;;;;;;5087441;28;20468;-90
2023/03/16 03:44:20;;;;;;;6.05;3.72;;;4.70;93.20;;;;;;5087895;28;20425;-89
2023/03/16 03:46:46;;;;;;;5.37;3.70;;;4.70;93.20;;;;;;5087486;28;20417;-91
2023/03/16 03:49:12;;;;;;;6.63;3.63;;;4.70;93.30;;;;;;5070632;28;20398;-89
2023/03/16 03:51:37;;;;;;;6.10;3.73;;;4.70;93.20;;;;;;5070505;28;20839;-88
2023/03/16 03:54:03;;;;;;;6.40;3.77;;;4.70;93.30;;;;;;5087727;28;20398;-91
2023/03/16 03:56:29;;;;;;;7.07;4.30;;;4.70;93.20;;;;;;5070908;28;20818;-89
2023/03/16 03:58:54;;;;;;;6.97;4.25;;;4.70;93.50;;;;;;5070665;28;20789;-90
2023/03/16 04:01:20;;;;;;;5.47;3.80;;;4.70;93.50;;;;;;5070817;28;20893;-90
2023/03/16 04:03:46;;;;;;;6.65;4.20;;;5.00;93.60;;;;;;5070534;28;20421;-90
2023/03/16 04:06:11;;;;;;;5.20;3.73;;;4.70;93.60;;;;;;5087337;28;20900;-90
2023/03/16 04:08:37;;;;;;;6.50;4.10;;;4.80;93.60;;;;;;5070086;28;20406;-90
2023/03/16 04:11:03;;;;;;;6.65;3.85;;;4.70;93.80;;;;;;5087149;28;20406;-90
2023/03/16 04:13:28;;;;;;;6.43;4.60;;;4.70;93.40;;;;;;5070096;28;20406;-90
2023/03/16 04:16:01;;;;;;;7.63;4.18;;;4.70;93.90;;;;;;5087729;28;20403;-91
2023/03/16 04:18:28;;;;;;;7.40;4.60;;;4.90;93.80;;;;;;5070592;28;20402;-91
2023/03/16 04:20:53;;;;;;;5.22;4.03;;;4.70;93.90;;;;;;5069331;28;20402;-90
2023/03/16 04:23:20;;;;;;;7.82;4.50;;;4.80;93.90;;;;;;5070287;28;20644;-90
2023/03/16 04:25:46;;;;;;;5.77;3.90;;;4.80;94.00;;;;;;5070070;28;20595;-90
2023/03/16 04:28:12;;;;;;;6.37;4.43;;;4.80;93.90;;;;;;5069927;28;20432;-91
2023/03/16 04:30:38;;;;;;;6.82;4.90;;;4.80;94.00;;;;;;5070061;28;20498;-89
2023/03/16 04:33:04;;;;;;;7.30;4.80;;;4.80;94.20;;;;;;5069591;28;20422;-89
2023/03/16 04:35:30;;;;;;;6.03;4.70;;;4.80;94.10;;;;;;5086744;28;20402;-90
2023/03/16 04:37:56;;;;;;;6.07;4.78;;;4.80;94.10;;;;;;5069584;28;20914;-90
2023/03/16 04:40:22;;;;;;;7.63;5.10;;;4.80;94.30;;;;;;5069837;28;20916;-90
2023/03/16 04:42:48;;;;;;;8.82;6.10;;;4.80;94.40;;;;;;5085984;28;20402;-90
2023/03/16 04:45:16;;;;;;;9.20;5.70;;;4.80;94.50;;;;;;5070007;28;20398;-91
2023/03/16 04:47:42;;;;;;;7.60;5.57;;;4.80;94.40;;;;;;5069664;28;20413;-89
2023/03/16 04:50:09;;;;;;;7.40;5.50;;;4.80;94.50;;;;;;5068898;28;20909;-90
2023/03/16 04:52:35;;;;;;;7.97;5.67;;;4.80;94.90;;;;;;5069507;28;20936;-90
2023/03/16 04:55:00;;;;;;;7.73;5.83;;;4.80;94.90;;;;;;5069762;28;20903;-90
2023/03/16 04:57:26;;;;;;;7.07;5.77;;;4.80;94.80;;;;;;5086807;28;20460;-91
2023/03/16 04:59:52;;;;;;;9.05;6.20;;;4.80;95.00;;;;;;5069579;28;20421;-90
2023/03/16 05:02:18;;;;;;;8.38;5.93;;;4.80;95.40;;;;;;5069375;28;20390;-91
2023/03/16 05:04:44;;;;;;;7.07;5.70;;;4.90;95.40;;;;;;5069422;28;20402;-90
2023/03/16 05:07:10;;;;;;;7.17;6.10;;;4.80;95.70;;;;;;5069401;28;20406;-90
2023/03/16 05:09:36;;;;;;;7.25;6.10;;;4.90;95.80;;;;;;5069110;28;21046;-91
2023/03/16 05:12:01;;;;;;;8.70;6.70;;;4.80;96.00;;;;;;5069072;28;20430;-89
2023/03/16 05:14:27;;;;;;;8.67;6.67;;;4.80;96.00;;;;;;5068928;28;20453;-91
2023/03/16 05:16:52;;;;;;;8.93;6.38;;;4.80;96.30;;;;;;5068969;28;20394;-90
2023/03/16 05:19:18;;;;;;;7.82;6.20;;;4.80;96.40;;;;;;5069160;28;20485;-89
2023/03/16 05:21:47;;;;;;;7.82;6.65;;;4.80;96.50;;;;;;5068483;28;20410;-90
2023/03/16 05:24:12;;;;;;;10.40;6.90;;;4.90;96.60;;;;;;5069041;28;20412;-90
2023/03/16 05:26:38;;;;;;;10.48;6.85;;;4.80;97.00;;;;;;5068897;28;20394;-89
2023/03/16 05:29:04;;;;;;;7.40;6.37;;;5.00;97.10;;;;;;5068782;28;20410;-91
2023/03/16 05:31:35;;;;;;;8.77;7.47;;;4.90;97.60;;;;;;5085419;28;20545;-90
2023/03/16 05:34:01;;;;;;;10.03;7.37;;;4.80;98.00;;;;;;5068684;28;20448;-90
2023/03/16 05:36:26;;;;;;;8.38;6.90;;;4.80;98.40;;;;;;5068623;28;20524;-89
2023/03/16 05:38:52;;;;;;;9.38;7.10;;;5.10;98.40;;;;;;5068548;28;20452;-90
2023/03/16 05:41:20;;;;;;;9.57;7.07;;;4.80;98.50;;;;;;5068660;28;20401;-91
2023/03/16 05:43:46;;;;;;;9.30;7.55;;;4.80;98.80;;;;;;5068801;28;20601;-90
2023/03/16 05:46:12;;;;;;;9.30;7.55;;;4.80;99.50;;;;;;5068485;28;20414;-90
2023/03/16 05:48:38;;;;;;;10.63;7.65;;;4.80;99.90;;;;;;5068207;28;20410;-90
2023/03/16 05:51:04;;;;;;;8.77;7.60;;;4.70;99.90;;;;;;5068556;28;20411;-91
2023/03/16 05:53:34;;;;;;;9.48;7.50;;;4.70;99.90;;;;;;5069028;28;20421;-89
2023/03/16 05:56:00;;;;;;;10.38;8.07;;;4.70;99.90;;;;;;5068452;28;20413;-88
2023/03/16 05:58:26;;;;;;;9.13;7.85;;;4.70;99.90;;;;;;5068694;28;20409;-89
2023/03/16 06:00:54;;;;;;;9.88;8.10;;;4.90;99.90;;;;;;5068376;28;20438;-90
2023/03/16 06:03:20;;;;;;;8.80;7.90;;;4.60;99.90;;;;;;5085150;28;20935;-90
2023/03/16 06:05:46;;;;;;;9.75;7.80;;;4.60;99.90;;;;;;5083165;28;20451;-89
2023/03/16 06:08:12;;;;;;;8.57;7.68;;;4.60;99.90;;;;;;5087609;28;20400;-90
2023/03/16 06:10:37;;;;;;;9.93;7.93;;;4.60;99.90;;;;;;5105335;28;20411;-88
2023/03/16 06:13:04;;;;;;;8.70;7.13;;;4.70;99.90;;;;;;5105029;28;20434;-89
2023/03/16 06:15:29;;;;;;;8.85;7.80;;;4.60;99.90;;;;;;5105720;28;20484;-91
2023/03/16 06:17:55;;;;;;;9.23;7.30;;;4.70;99.90;;;;;;5088159;28;20962;-90
2023/03/16 06:20:21;;;;;;;8.77;7.37;;;4.70;99.90;;;;;;5088443;28;20439;-90
2023/03/16 06:22:47;;;;;;;10.75;8.15;;;4.70;99.90;;;;;;5088107;28;20491;-91
2023/03/16 06:25:14;;;;;;;10.60;8.00;;;4.70;99.90;;;;;;5070056;28;21037;-89
2023/03/16 06:27:40;;;;;;;9.20;7.47;;;4.90;99.90;;;;;;5084519;28;20402;-89
2023/03/16 06:30:10;;;;;;;9.90;7.88;;;4.70;99.90;;;;;;5084411;28;20449;-88
2023/03/16 06:32:37;;;;;;;9.47;7.30;;;4.80;99.90;;;;;;5067549;28;21192;-89
2023/03/16 06:35:03;;;;;;;9.35;7.35;;;4.80;99.90;;;;;;5067079;28;20406;-89
2023/03/16 06:37:30;;;;;;;11.65;7.95;;;4.80;99.90;;;;;;5068096;28;20402;-90
2023/03/16 06:39:56;;;;;;;9.45;7.38;;;4.80;99.90;;;;;;5084797;28;20513;-90
2023/03/16 06:42:22;;;;;;;10.60;7.13;;;5.10;99.90;;;;;;5067809;28;20488;-91
2023/03/16 06:44:48;;;;;;;11.07;7.22;;;4.90;99.90;;;;;;5084282;28;20401;-89
2023/03/16 06:47:14;;;;;;;8.95;7.10;;;4.90;99.90;;;;;;5067615;28;20414;-91
2023/03/16 06:49:39;;;;;;;8.75;6.85;;;4.90;99.90;;;;;;5100815;28;20491;-89
2023/03/16 06:52:05;;;;;;;9.77;6.80;;;4.90;99.90;;;;;;5067564;28;20429;-91
2023/03/16 06:54:33;;;;;;;8.83;7.13;;;5.00;99.90;;;;;;5084712;28;20463;-91
2023/03/16 06:56:58;;;;;;;10.00;7.25;;;5.00;99.90;;;;;;5067664;28;20406;-89
2023/03/16 06:59:24;;;;;;;9.40;6.95;;;5.00;99.90;;;;;;5084806;28;20429;-93
2023/03/16 07:01:49;;;;;;;9.75;7.50;;;5.10;99.90;;;;;;5067706;28;20406;-92
2023/03/16 07:04:15;;;;;;;9.13;6.80;;;5.00;99.90;;;;;;5083554;28;20448;-91
2023/03/16 07:06:41;;;;;;;9.80;6.83;;;5.00;99.90;;;;;;5067576;28;20591;-91
2023/03/16 07:09:07;;;;;;;10.30;6.53;;;5.10;99.90;;;;;;5067791;28;20402;-90
2023/03/16 07:11:33;;;;;;;9.80;7.05;;;5.30;99.90;;;;;;5067267;28;20430;-90
2023/03/16 07:14:00;;;;;;;8.75;6.82;;;5.10;99.90;;;;;;5070852;28;20402;-90
2023/03/16 07:16:26;;;;;;;8.02;7.22;;;5.10;99.90;;;;;;5087418;28;20402;-92
2023/03/16 07:18:53;;;;;;;9.50;6.78;;;5.20;99.90;;;;;;5070277;28;20428;-91
2023/03/16 07:21:18;;;;;;;9.48;7.25;;;5.10;99.90;;;;;;5070437;28;20398;-90
2023/03/16 07:23:44;;;;;;;8.53;7.30;;;5.20;99.90;;;;;;5087614;28;20883;-90
2023/03/16 07:26:11;;;;;;;10.13;7.03;;;5.40;99.90;;;;;;5070975;28;20402;-90
2023/03/16 07:28:37;;;;;;;8.82;7.13;;;5.20;99.90;;;;;;5070427;28;20401;-90
2023/03/16 07:31:04;;;;;;;9.35;6.90;;;5.10;99.90;;;;;;5070866;28;20433;-90
2023/03/16 07:33:33;;;;;;;8.82;6.95;;;5.30;99.90;;;;;;5070526;28;20871;-91
2023/03/16 07:36:03;;;;;;;9.55;6.78;;;5.30;99.90;;;;;;5070480;28;20413;-90
2023/03/16 07:38:28;;;;;;;10.53;7.23;;;5.30;99.90;;;;;;5087030;28;20527;-92
2023/03/16 07:40:54;;;;;;;8.63;7.67;;;5.30;99.90;;;;;;5087473;28;20897;-92
2023/03/16 07:43:20;;;;;;;8.57;7.40;;;5.50;99.90;;;;;;5070475;28;20394;-93
2023/03/16 07:45:51;;;;;;;10.13;7.43;;;5.40;99.90;;;;;;5070285;28;20395;-91
2023/03/16 07:48:17;;;;;;;9.32;7.30;;;5.30;99.90;;;;;;5086985;28;20405;-90
2023/03/16 07:50:43;;;;;;;8.75;6.97;;;5.30;99.90;;;;;;5070468;28;20409;-92
2023/03/16 07:53:09;;;;;;;9.60;6.72;;;5.30;99.90;;;;;;5069601;28;20421;-93
2023/03/16 07:55:35;;;;;;;10.98;7.40;;;5.30;99.90;;;;;;5086922;28;20752;-92
2023/03/16 07:58:03;;;;;;;8.77;7.38;;;5.30;99.90;;;;;;5086889;28;21097;-94
2023/03/16 08:00:29;;;;;;;10.30;7.40;;;5.30;99.90;;;;;;5069979;28;20398;-92
2023/03/16 08:02:56;;;;;;;10.47;7.70;;;5.30;99.90;;;;;;5087194;28;20429;-91
2023/03/16 08:05:22;;;;;;;11.30;7.53;;;5.30;99.90;;;;;;5086927;28;20508;-92
2023/03/16 08:07:47;;;;;;;10.17;7.20;;;5.20;99.90;;;;;;5086795;28;20497;-91
2023/03/16 08:10:13;;;;;;;9.73;7.03;;;5.20;99.90;;;;;;5069670;28;20410;-93
2023/03/16 08:12:39;;;;;;;9.40;7.53;;;5.20;99.90;;;;;;5070134;28;20457;-92
2023/03/16 08:15:05;;;;;;;11.55;8.60;;;5.20;99.90;;;;;;5069535;28;20433;-92
2023/03/16 08:17:31;;;;;;;8.68;7.15;;;5.20;99.90;;;;;;5069811;28;20405;-92
2023/03/16 08:19:57;;;;;;;9.13;7.35;;;5.20;99.90;;;;;;5069334;28;20757;-91
2023/03/16 08:22:23;;;;;;;9.60;7.63;;;5.20;99.90;;;;;;5069748;28;20464;-92
2023/03/16 08:24:49;;;;;;;11.20;8.47;;;5.30;99.90;;;;;;5068476;28;20513;-94
2023/03/16 08:27:15;;;;;;;8.32;7.20;;;5.20;99.90;;;;;;5086226;28;20402;-92
2023/03/16 08:29:40;;;;;;;10.43;7.73;;;5.30;99.90;;;;;;5070142;28;20493;-93
2023/03/16 08:32:06;;;;;;;11.20;8.27;;;5.30;99.90;;;;;;5068839;28;20425;-92
2023/03/16 08:34:32;;;;;;;9.18;7.07;;;5.30;99.90;;;;;;5069909;28;20390;-93
2023/03/16 08:36:58;;;;;;;9.02;7.35;;;5.30;99.90;;;;;;5069572;28;20999;-93
2023/03/16 08:39:24;;;;;;;10.83;7.20;;;5.40;99.90;;;;;;5069088;28;20489;-94
2023/03/16 08:41:50;;;;;;;10.10;7.15;;;5.30;99.90;;;;;;5085943;28;20416;-92
2023/03/16 08:44:16;;;;;;;8.65;6.93;;;5.30;99.90;;;;;;5069399;28;20402;-93
2023/03/16 08:46:43;;;;;;;10.30;7.60;;;5.30;99.90;;;;;;5069364;28;20893;-93
2023/03/16 08:49:09;;;;;;;9.50;7.20;;;5.30;99.90;;;;;;5085728;28;20398;-91
2023/03/16 08:51:35;;;;;;;8.70;7.28;;;5.30;99.90;;;;;;5086154;28;20422;-92
2023/03/16 08:54:01;;;;;;;10.50;7.60;;;5.40;99.90;;;;;;5069108;28;20402;-92
2023/03/16 08:56:29;;;;;;;11.47;7.37;;;5.40;99.90;;;;;;5085925;28;20485;-93
2023/03/16 08:58:56;;;;;;;10.70;7.63;;;5.40;99.90;;;;;;5068277;28;20459;-93
2023/03/16 09:01:23;;;;;;;10.88;7.80;;;5.50;99.90;;;;;;5069001;28;20405;-93
2023/03/16 09:03:50;;;;;;;10.75;7.82;;;5.60;99.90;;;;;;5068696;28;20390;-92
2023/03/16 09:06:16;;;;;;;11.50;7.80;;;5.40;99.90;;;;;;5068893;28;20400;-94
2023/03/16 09:08:44;;;;;;;11.25;8.00;;;5.40;99.90;;;;;;5068635;28;20403;-93
2023/03/16 09:11:15;;;;;;;10.38;7.43;;;5.40;99.90;;;;;;5085511;28;20441;-92
2023/03/16 09:13:41;;;;;;;10.68;7.68;;;5.50;99.90;;;;;;5085191;28;20489;-93
2023/03/16 09:16:09;;;;;;;11.95;8.18;;;5.50;99.90;;;;;;5068537;28;20400;-93
2023/03/16 09:18:35;;;;;;;12.25;8.52;;;5.70;99.90;;;;;;5068977;28;20871;-93
2023/03/16 09:21:05;;;;;;;10.40;7.40;;;5.70;99.90;;;;;;5068262;28;20820;-93
2023/03/16 09:23:33;;;;;;;10.18;7.78;;;5.60;99.90;;;;;;5068577;28;20413;-94
2023/03/16 09:26:00;;;;;;;9.70;8.23;;;5.60;99.90;;;;;;5085686;28;20409;-93
2023/03/16 09:28:27;;;;;;;10.05;6.47;;;5.70;99.90;;;;;;5068145;28;20765;-94
2023/03/16 09:30:54;;;;;;;9.13;7.07;;;5.70;99.90;;;;;;5085170;28;20398;-93
2023/03/16 09:33:20;;;;;;;10.23;7.10;;;5.80;99.90;;;;;;5084903;28;20430;-94
2023/03/16 09:35:46;;;;;;;9.43;6.57;;;5.80;99.90;;;;;;5085287;28;20401;-93
2023/03/16 09:38:12;;;;;;;9.33;6.47;;;6.00;99.90;;;;;;5068386;28;20398;-94
2023/03/16 09:40:40;;;;;;;8.70;7.20;;;5.90;99.90;;;;;;5085201;28;20402;-93
2023/03/16 09:43:42;;;;;;;8.67;6.60;;;5.90;99.90;;;;;;5068635;28;20422;-92
2023/03/16 09:46:26;;;;;;;9.85;6.85;;;6.00;99.90;;;;;;5086455;28;20407;-93
2023/03/16 09:48:54;;;;;;;10.33;6.27;;;6.00;99.90;;;;;;5068634;28;20474;-95
2023/03/16 09:51:44;;;;;;;8.77;6.00;;;6.00;99.90;;;;;;5067794;28;20410;-94
2023/03/16 09:54:19;;;;;;;7.65;6.25;;;6.00;99.90;;;;;;5068021;28;20462;-93
2023/03/16 09:56:48;;;;;;;9.30;6.30;;;6.00;99.90;;;;;;5068401;28;20413;-94
2023/03/16 09:59:18;;;;;;;9.75;6.53;;;6.10;99.90;;;;;;5084502;28;20406;-95
2023/03/16 10:02:16;;;;;;;9.70;6.63;;;5.90;99.90;;;;;;5085079;28;20481;-94
2023/03/16 10:05:05;;;;;;;7.75;5.50;;;6.10;99.90;;;;;;5084926;28;20409;-93
2023/03/16 10:07:33;;;;;;;6.93;5.30;;;6.10;99.90;;;;;;5067606;28;20414;-92
2023/03/16 10:10:19;;;;;;;7.25;6.05;;;6.10;99.90;;;;;;5067552;28;20995;-95
2023/03/16 10:12:50;;;;;;;7.88;5.00;;;6.10;99.90;;;;;;5067597;28;20480;-93
2023/03/16 10:15:21;;;;;;;8.43;5.10;;;6.10;99.90;;;;;;5084908;28;20405;-94
2023/03/16 10:17:56;;;;;;;6.50;5.15;;;6.20;99.90;;;;;;5068118;28;20412;-93
2023/03/16 10:20:23;;;;;;;6.40;4.27;;;6.20;99.90;;;;;;5067346;28;20986;-94
2023/03/16 10:22:51;;;;;;;8.70;5.00;;;6.30;99.90;;;;;;5084402;28;20410;-93
2023/03/16 10:25:42;;;;;;;6.43;4.47;;;6.20;99.90;;;;;;5067596;28;20441;-94
2023/03/16 10:28:17;;;;;;;8.23;4.90;;;6.20;99.90;;;;;;5084905;28;20406;-93
2023/03/16 10:30:43;;;;;;;6.65;4.43;;;6.30;99.90;;;;;;5085121;28;20991;-90
2023/03/16 10:33:38;;;;;;;8.57;4.60;;;6.30;99.90;;;;;;5067512;28;20472;-92
2023/03/16 10:36:25;;;;;;;7.57;4.60;;;6.50;99.90;;;;;;5065985;28;20909;-92
2023/03/16 10:39:00;;;;;;;7.05;4.65;;;6.40;99.90;;;;;;5067461;28;20421;-94
2023/03/16 10:41:38;;;;;;;6.57;4.13;;;6.50;99.90;;;;;;5084384;28;20578;-91
2023/03/16 10:44:15;;;;;;;6.03;4.00;;;6.50;99.90;;;;;;5067907;28;20481;-92
2023/03/16 10:46:47;;;;;;;7.13;4.40;;;6.50;99.90;;;;;;5084659;28;20455;-94
2023/03/16 10:49:21;;;;;;;6.90;4.40;;;6.60;99.90;;;;;;5088693;28;20406;-93
2023/03/16 10:51:47;;;;;;;6.22;4.30;;;7.00;99.90;;;;;;5070829;28;20422;-91
2023/03/16 10:54:28;;;;;;;5.75;4.07;;;6.90;99.90;;;;;;5071113;28;20402;-93
2023/03/16 10:56:55;;;;;;;6.28;4.30;;;6.90;99.90;;;;;;5088601;28;20416;-92
2023/03/16 10:59:37;;;;;;;6.85;4.18;;;7.20;99.90;;;;;;5071344;28;20560;-92
2023/03/16 11:02:19;;;;;;;5.93;4.23;;;7.10;99.90;;;;;;5087858;28;20436;-94
2023/03/16 11:04:46;;;;;;;6.93;4.30;;;7.20;99.90;;;;;;5087594;28;20409;-93
2023/03/16 11:07:17;;;;;;;5.22;4.13;;;7.30;99.90;;;;;;5071094;28;20406;-92
2023/03/16 11:09:46;;;;;;;6.13;4.30;;;7.40;99.90;;;;;;5071533;28;20505;-94
2023/03/16 11:12:32;;;;;;;6.05;3.78;;;7.50;99.90;;;;;;5071012;28;20422;-92
2023/03/16 11:15:12;;;;;;;5.75;3.72;;;7.50;99.90;;;;;;5053867;28;20790;-93
2023/03/16 11:17:43;;;;;;;5.70;3.80;;;7.60;99.90;;;;;;5087434;28;20417;-91
2023/03/16 11:20:18;;;;;;;6.35;3.80;;;7.60;99.90;;;;;;5071219;28;20726;-93
2023/03/16 11:22:46;;;;;;;7.55;3.60;;;7.50;99.90;;;;;;5087867;28;20401;-93
2023/03/16 11:25:41;;;;;;;6.07;3.90;;;7.60;99.90;;;;;;5087043;28;20465;-93
2023/03/16 11:28:18;;;;;;;6.93;3.72;;;7.60;99.90;;;;;;5087266;28;20438;-89
2023/03/16 11:31:27;;;;;;;6.78;4.20;;;7.60;99.90;;;;;;5070835;28;20398;-92
2023/03/16 11:33:56;;;;;;;5.82;4.22;;;7.70;99.90;;;;;;5087256;28;20402;-92
2023/03/16 11:36:43;;;;;;;6.45;3.30;;;7.80;99.90;;;;;;5087313;28;20401;-91
2023/03/16 11:39:33;;;;;;;6.00;3.58;;;7.80;99.90;;;;;;5070406;28;20812;-91
2023/03/16 11:42:29;;;;;;;7.10;4.00;;;7.90;99.90;;;;;;5070328;28;20458;-94
2023/03/16 11:45:02;;;;;;;5.47;3.78;;;8.00;99.90;;;;;;5070529;28;20406;-92
2023/03/16 11:47:36;;;;;;;6.43;3.92;;;8.10;99.90;;;;;;5069991;28;20417;-93
2023/03/16 11:50:17;;;;;;;5.88;3.75;;;8.30;99.90;;;;;;5070694;28;20826;-93
2023/03/16 11:53:01;;;;;;;5.75;3.70;;;8.50;99.90;;;;;;5070238;28;20434;-91
2023/03/16 11:55:52;;;;;;;5.80;3.38;;;8.70;99.90;;;;;;5086899;28;20420;-92
2023/03/16 11:58:42;;;;;;;5.53;3.20;;;8.80;99.90;;;;;;5069959;28;20928;-94
2023/03/16 12:01:30;;;;;;;6.70;3.70;;;8.90;99.90;;;;;;5069862;28;20410;-92
2023/03/16 12:04:08;;;;;;;5.75;3.42;;;9.00;99.90;;;;;;5069942;28;20403;-91
2023/03/16 12:06:51;;;;;;;7.15;3.83;;;9.00;99.90;;;;;;5070239;28;20983;-93
2023/03/16 12:09:27;;;;;;;5.75;3.92;;;9.10;99.90;;;;;;5086550;28;20441;-93
2023/03/16 12:12:17;;;;;;;6.63;4.20;;;9.20;99.90;;;;;;5070495;28;20430;-90
2023/03/16 12:14:49;;;;;;;6.72;3.90;;;9.30;99.90;;;;;;5070551;28;20453;-92
2023/03/16 12:17:19;;;;;;;5.88;3.80;;;9.30;99.70;;;;;;5069829;28;20455;-91
2023/03/16 12:19:54;;;;;;;6.10;4.30;;;9.30;99.90;;;;;;5069568;28;20814;-90
2023/03/16 12:22:24;;;;;;;6.15;3.63;;;9.40;99.90;;;;;;5082338;28;20807;-93
2023/03/16 12:24:50;;;;;;;6.68;3.35;;;9.50;99.70;;;;;;5069814;28;21076;-91
2023/03/16 12:27:35;;;;;;;4.50;3.17;;;9.50;99.20;;;;;;5086237;28;20776;-92
2023/03/16 12:30:19;;;;;;;4.90;3.22;;;9.60;98.70;;;;;;5086596;28;20420;-91
2023/03/16 12:32:55;;;;;;;4.90;3.30;;;9.60;98.20;;;;;;5069357;28;20426;-92
2023/03/16 12:35:46;;;;;;;6.28;3.58;;;9.70;98.70;;;;;;5103302;28;20398;-92
2023/03/16 12:38:36;;;;;;;5.72;3.28;;;9.60;98.40;;;;;;5086554;28;20411;-91
2023/03/16 12:41:15;;;;;;;5.47;3.42;;;9.50;97.20;;;;;;5086722;28;20821;-91
2023/03/16 12:44:02;;;;;;;4.68;3.10;;;9.50;97.90;;;;;;5085825;28;20951;-92
2023/03/16 12:46:55;;;;;;;5.82;3.05;;;9.50;98.40;;;;;;5069403;28;20421;-92
2023/03/16 12:49:23;;;;;;;6.32;3.50;;;9.50;97.30;;;;;;5069157;28;20458;-91
2023/03/16 12:51:59;;;;;;;4.28;3.10;;;9.70;97.50;;;;;;5068953;28;20465;-90
2023/03/16 12:54:25;;;;;;;5.20;3.23;;;9.50;97.30;;;;;;5085508;28;20498;-91
2023/03/16 12:56:58;;;;;;;4.28;2.55;;;9.70;96.60;;;;;;5085713;28;20406;-93
2023/03/16 12:59:24;;;;;;;5.53;3.58;;;9.50;96.60;;;;;;5085976;28;20402;-92
2023/03/16 13:01:55;;;;;;;7.88;4.75;;;9.40;96.90;;;;;;5068970;28;20408;-90
2023/03/16 13:04:34;;;;;;;5.95;3.67;;;9.50;97.30;;;;;;5068843;28;20714;-91
2023/03/16 13:07:10;;;;;;;5.18;3.20;;;9.50;97.10;;;;;;5069103;28;20959;-93
2023/03/16 13:09:43;;;;;;;5.17;2.80;;;9.50;96.60;;;;;;5068243;28;20434;-91